sensor_id;sensor_type;location;lat;lon;timestamp;P1;durP1;ratioP1;P2;durP2;ratioP2
19800;SDS011;10060;48.274;12.214;2023-07-31T00:01:46;2.25;;;1.65;;
19800;SDS011;10060;48.274;12.214;2023-07-31T00:04:48;3.25;;;1.60;;
19800;SDS011;10060;48.274;12.214;2023-07-31T00:07:50;4.63;;;2.00;;
19800;SDS011;10060;48.274;12.214;2023-07-31T00:10:53;4.30;;;2.00;;
19800;SDS011;10060;48.274;12.214;2023-07-31T00:13:57;3.00;;;1.65;;
19800;SDS011;10060;48.274;12.214;2023-07-31T00:17:00;4.75;;;1.73;;
19800;SDS011;10060;48.274;12.214;2023-07-31T00:20:03;4.78;;;1.75;;
19800;SDS011;10060;48.274;12.214;2023-07-31T00:23:05;4.43;;;1.65;;
19800;SDS011;10060;48.274;12.214;2023-07-31T00:26:07;3.35;;;1.80;;
19800;SDS011;10060;48.274;12.214;2023-07-31T00:29:11;5.07;;;2.65;;
19800;SDS011;10060;48.274;12.214;2023-07-31T00:32:13;4.88;;;2.08;;
19800;SDS011;10060;48.274;12.214;2023-07-31T00:35:15;5.63;;;2.20;;
19800;SDS011;10060;48.274;12.214;2023-07-31T00:38:17;6.57;;;2.30;;
19800;SDS011;10060;48.274;12.214;2023-07-31T00:41:19;4.00;;;1.83;;
19800;SDS011;10060;48.274;12.214;2023-07-31T00:44:23;3.47;;;2.25;;
19800;SDS011;10060;48.274;12.214;2023-07-31T00:47:25;4.60;;;2.42;;
19800;SDS011;10060;48.274;12.214;2023-07-31T00:50:27;3.97;;;2.70;;
19800;SDS011;10060;48.274;12.214;2023-07-31T00:53:30;4.22;;;2.92;;
19800;SDS011;10060;48.274;12.214;2023-07-31T00:56:32;7.38;;;2.78;;
19800;SDS011;10060;48.274;12.214;2023-07-31T00:59:35;4.55;;;2.60;;
19800;SDS011;10060;48.274;12.214;2023-07-31T01:02:38;6.82;;;3.00;;
19800;SDS011;10060;48.274;12.214;2023-07-31T01:05:43;4.72;;;2.70;;
19800;SDS011;10060;48.274;12.214;2023-07-31T01:08:49;6.45;;;2.72;;
19800;SDS011;10060;48.274;12.214;2023-07-31T01:11:56;5.43;;;2.42;;
19800;SDS011;10060;48.274;12.214;2023-07-31T01:15:05;4.15;;;2.30;;
19800;SDS011;10060;48.274;12.214;2023-07-31T01:18:10;4.43;;;2.50;;
19800;SDS011;10060;48.274;12.214;2023-07-31T01:21:18;7.60;;;2.90;;
19800;SDS011;10060;48.274;12.214;2023-07-31T01:24:25;4.20;;;2.65;;
19800;SDS011;10060;48.274;12.214;2023-07-31T01:27:34;4.50;;;2.42;;
19800;SDS011;10060;48.274;12.214;2023-07-31T01:30:37;4.35;;;2.40;;
19800;SDS011;10060;48.274;12.214;2023-07-31T01:33:43;4.70;;;2.20;;
19800;SDS011;10060;48.274;12.214;2023-07-31T01:36:45;5.03;;;2.42;;
19800;SDS011;10060;48.274;12.214;2023-07-31T01:39:48;4.75;;;2.30;;
19800;SDS011;10060;48.274;12.214;2023-07-31T01:42:51;5.90;;;2.25;;
19800;SDS011;10060;48.274;12.214;2023-07-31T01:45:53;4.82;;;2.17;;
19800;SDS011;10060;48.274;12.214;2023-07-31T01:48:55;2.67;;;2.10;;
19800;SDS011;10060;48.274;12.214;2023-07-31T01:51:57;5.03;;;3.10;;
19800;SDS011;10060;48.274;12.214;2023-07-31T01:55:00;6.40;;;3.33;;
19800;SDS011;10060;48.274;12.214;2023-07-31T01:58:03;4.28;;;2.90;;
19800;SDS011;10060;48.274;12.214;2023-07-31T02:01:05;3.88;;;2.22;;
19800;SDS011;10060;48.274;12.214;2023-07-31T02:04:07;4.70;;;2.22;;
19800;SDS011;10060;48.274;12.214;2023-07-31T02:07:09;6.57;;;2.22;;
19800;SDS011;10060;48.274;12.214;2023-07-31T02:10:11;3.50;;;2.20;;
19800;SDS011;10060;48.274;12.214;2023-07-31T02:13:15;4.15;;;2.53;;
19800;SDS011;10060;48.274;12.214;2023-07-31T02:16:17;4.78;;;2.60;;
19800;SDS011;10060;48.274;12.214;2023-07-31T02:19:19;4.00;;;2.30;;
19800;SDS011;10060;48.274;12.214;2023-07-31T02:22:21;5.35;;;3.70;;
19800;SDS011;10060;48.274;12.214;2023-07-31T02:25:23;7.22;;;3.42;;
19800;SDS011;10060;48.274;12.214;2023-07-31T02:28:27;9.38;;;4.25;;
19800;SDS011;10060;48.274;12.214;2023-07-31T02:31:29;4.90;;;3.20;;
19800;SDS011;10060;48.274;12.214;2023-07-31T02:34:31;4.68;;;2.78;;
19800;SDS011;10060;48.274;12.214;2023-07-31T02:37:33;5.43;;;2.53;;
19800;SDS011;10060;48.274;12.214;2023-07-31T02:40:35;4.68;;;2.50;;
19800;SDS011;10060;48.274;12.214;2023-07-31T02:43:39;5.07;;;2.40;;
19800;SDS011;10060;48.274;12.214;2023-07-31T02:46:41;4.28;;;2.20;;
19800;SDS011;10060;48.274;12.214;2023-07-31T02:49:43;6.35;;;2.67;;
19800;SDS011;10060;48.274;12.214;2023-07-31T02:52:45;4.03;;;2.45;;
19800;SDS011;10060;48.274;12.214;2023-07-31T02:55:47;3.58;;;2.60;;
19800;SDS011;10060;48.274;12.214;2023-07-31T02:58:50;5.07;;;2.50;;
19800;SDS011;10060;48.274;12.214;2023-07-31T03:01:52;4.85;;;2.40;;
19800;SDS011;10060;48.274;12.214;2023-07-31T03:04:54;5.43;;;2.35;;
19800;SDS011;10060;48.274;12.214;2023-07-31T03:07:56;6.72;;;2.67;;
19800;SDS011;10060;48.274;12.214;2023-07-31T03:10:58;3.70;;;2.15;;
19800;SDS011;10060;48.274;12.214;2023-07-31T03:14:02;3.90;;;2.50;;
19800;SDS011;10060;48.274;12.214;2023-07-31T03:17:04;5.97;;;2.42;;
19800;SDS011;10060;48.274;12.214;2023-07-31T03:20:07;3.63;;;2.10;;
19800;SDS011;10060;48.274;12.214;2023-07-31T03:23:09;4.18;;;1.90;;
19800;SDS011;10060;48.274;12.214;2023-07-31T03:26:11;5.78;;;2.30;;
19800;SDS011;10060;48.274;12.214;2023-07-31T03:29:15;3.35;;;2.22;;
19800;SDS011;10060;48.274;12.214;2023-07-31T03:32:17;3.40;;;2.20;;
19800;SDS011;10060;48.274;12.214;2023-07-31T03:35:19;4.28;;;2.30;;
19800;SDS011;10060;48.274;12.214;2023-07-31T03:38:21;6.68;;;2.40;;
19800;SDS011;10060;48.274;12.214;2023-07-31T03:41:23;6.38;;;2.50;;
19800;SDS011;10060;48.274;12.214;2023-07-31T03:44:26;3.25;;;2.05;;
19800;SDS011;10060;48.274;12.214;2023-07-31T03:47:29;4.30;;;2.33;;
19800;SDS011;10060;48.274;12.214;2023-07-31T03:50:31;4.05;;;2.05;;
19800;SDS011;10060;48.274;12.214;2023-07-31T03:53:33;4.38;;;2.83;;
19800;SDS011;10060;48.274;12.214;2023-07-31T03:56:35;4.00;;;2.50;;
19800;SDS011;10060;48.274;12.214;2023-07-31T03:59:39;7.80;;;2.28;;
19800;SDS011;10060;48.274;12.214;2023-07-31T04:02:42;3.80;;;2.45;;
19800;SDS011;10060;48.274;12.214;2023-07-31T04:05:44;4.50;;;2.80;;
19800;SDS011;10060;48.274;12.214;2023-07-31T04:08:46;5.57;;;2.90;;
19800;SDS011;10060;48.274;12.214;2023-07-31T04:11:48;5.90;;;2.75;;
19800;SDS011;10060;48.274;12.214;2023-07-31T04:14:51;4.97;;;2.80;;
19800;SDS011;10060;48.274;12.214;2023-07-31T04:17:53;3.67;;;2.95;;
19800;SDS011;10060;48.274;12.214;2023-07-31T04:20:55;6.47;;;2.90;;
19800;SDS011;10060;48.274;12.214;2023-07-31T04:23:58;4.22;;;2.80;;
19800;SDS011;10060;48.274;12.214;2023-07-31T04:27:00;6.30;;;3.00;;
19800;SDS011;10060;48.274;12.214;2023-07-31T04:30:04;8.15;;;2.97;;
19800;SDS011;10060;48.274;12.214;2023-07-31T04:33:06;3.97;;;2.45;;
19800;SDS011;10060;48.274;12.214;2023-07-31T04:36:09;13.57;;;3.30;;
19800;SDS011;10060;48.274;12.214;2023-07-31T04:39:11;9.35;;;3.97;;
19800;SDS011;10060;48.274;12.214;2023-07-31T04:42:13;14.13;;;4.55;;
19800;SDS011;10060;48.274;12.214;2023-07-31T04:45:16;24.00;;;7.38;;
19800;SDS011;10060;48.274;12.214;2023-07-31T04:48:18;16.30;;;5.85;;
19800;SDS011;10060;48.274;12.214;2023-07-31T04:51:20;17.88;;;6.93;;
19800;SDS011;10060;48.274;12.214;2023-07-31T04:54:23;15.55;;;5.70;;
19800;SDS011;10060;48.274;12.214;2023-07-31T04:57:25;15.88;;;6.80;;
19800;SDS011;10060;48.274;12.214;2023-07-31T05:00:29;19.80;;;6.18;;
19800;SDS011;10060;48.274;12.214;2023-07-31T05:03:31;15.82;;;5.05;;
19800;SDS011;10060;48.274;12.214;2023-07-31T05:06:33;15.02;;;5.72;;
19800;SDS011;10060;48.274;12.214;2023-07-31T05:09:35;21.35;;;6.93;;
19800;SDS011;10060;48.274;12.214;2023-07-31T05:12:39;31.67;;;8.52;;
19800;SDS011;10060;48.274;12.214;2023-07-31T05:15:42;14.52;;;5.93;;
19800;SDS011;10060;48.274;12.214;2023-07-31T05:18:44;8.73;;;5.20;;
19800;SDS011;10060;48.274;12.214;2023-07-31T05:21:46;5.97;;;3.88;;
19800;SDS011;10060;48.274;12.214;2023-07-31T05:24:48;9.23;;;3.63;;
19800;SDS011;10060;48.274;12.214;2023-07-31T05:27:50;7.00;;;3.60;;
19800;SDS011;10060;48.274;12.214;2023-07-31T05:30:59;7.63;;;3.33;;
19800;SDS011;10060;48.274;12.214;2023-07-31T05:34:01;10.52;;;3.42;;
19800;SDS011;10060;48.274;12.214;2023-07-31T05:37:04;6.07;;;3.50;;
19800;SDS011;10060;48.274;12.214;2023-07-31T05:40:06;34.78;;;4.35;;
19800;SDS011;10060;48.274;12.214;2023-07-31T05:43:09;20.85;;;4.85;;
19800;SDS011;10060;48.274;12.214;2023-07-31T05:46:12;7.43;;;3.28;;
19800;SDS011;10060;48.274;12.214;2023-07-31T05:49:14;7.15;;;2.90;;
19800;SDS011;10060;48.274;12.214;2023-07-31T05:52:16;5.13;;;2.75;;
19800;SDS011;10060;48.274;12.214;2023-07-31T05:55:18;4.43;;;2.45;;
19800;SDS011;10060;48.274;12.214;2023-07-31T05:58:21;3.50;;;2.67;;
19800;SDS011;10060;48.274;12.214;2023-07-31T06:01:24;4.95;;;2.67;;
19800;SDS011;10060;48.274;12.214;2023-07-31T06:04:26;4.03;;;2.40;;
19800;SDS011;10060;48.274;12.214;2023-07-31T06:07:29;6.40;;;2.28;;
19800;SDS011;10060;48.274;12.214;2023-07-31T06:10:31;4.75;;;2.65;;
19800;SDS011;10060;48.274;12.214;2023-07-31T06:13:33;4.32;;;2.83;;
19800;SDS011;10060;48.274;12.214;2023-07-31T06:16:36;3.40;;;2.40;;
19800;SDS011;10060;48.274;12.214;2023-07-31T06:19:39;4.47;;;2.70;;
19800;SDS011;10060;48.274;12.214;2023-07-31T06:22:41;3.30;;;2.38;;
19800;SDS011;10060;48.274;12.214;2023-07-31T06:25:43;7.60;;;2.88;;
19800;SDS011;10060;48.274;12.214;2023-07-31T06:28:45;3.90;;;2.35;;
19800;SDS011;10060;48.274;12.214;2023-07-31T06:31:48;6.05;;;2.33;;
19800;SDS011;10060;48.274;12.214;2023-07-31T06:34:51;3.63;;;1.70;;
19800;SDS011;10060;48.274;12.214;2023-07-31T06:37:54;4.55;;;1.88;;
19800;SDS011;10060;48.274;12.214;2023-07-31T06:40:56;4.65;;;2.00;;
19800;SDS011;10060;48.274;12.214;2023-07-31T06:43:58;4.93;;;1.90;;
19800;SDS011;10060;48.274;12.214;2023-07-31T06:47:01;4.35;;;1.60;;
19800;SDS011;10060;48.274;12.214;2023-07-31T06:50:04;3.30;;;1.50;;
19800;SDS011;10060;48.274;12.214;2023-07-31T06:53:06;2.42;;;1.75;;
19800;SDS011;10060;48.274;12.214;2023-07-31T06:56:08;6.53;;;1.48;;
19800;SDS011;10060;48.274;12.214;2023-07-31T06:59:10;3.17;;;1.60;;
19800;SDS011;10060;48.274;12.214;2023-07-31T07:02:14;3.58;;;1.45;;
19800;SDS011;10060;48.274;12.214;2023-07-31T07:05:16;2.22;;;1.60;;
19800;SDS011;10060;48.274;12.214;2023-07-31T07:08:19;3.33;;;1.90;;
19800;SDS011;10060;48.274;12.214;2023-07-31T07:11:21;2.80;;;1.40;;
19800;SDS011;10060;48.274;12.214;2023-07-31T07:14:23;4.35;;;1.80;;
19800;SDS011;10060;48.274;12.214;2023-07-31T07:17:27;3.33;;;1.80;;
19800;SDS011;10060;48.274;12.214;2023-07-31T07:20:31;5.65;;;2.30;;
19800;SDS011;10060;48.274;12.214;2023-07-31T07:23:33;2.10;;;1.55;;
19800;SDS011;10060;48.274;12.214;2023-07-31T07:26:35;6.60;;;2.13;;
19800;SDS011;10060;48.274;12.214;2023-07-31T07:29:37;3.15;;;1.85;;
19800;SDS011;10060;48.274;12.214;2023-07-31T07:32:41;3.42;;;1.90;;
19800;SDS011;10060;48.274;12.214;2023-07-31T07:35:43;6.07;;;1.80;;
19800;SDS011;10060;48.274;12.214;2023-07-31T07:38:45;3.00;;;1.58;;
19800;SDS011;10060;48.274;12.214;2023-07-31T07:41:47;3.25;;;1.77;;
19800;SDS011;10060;48.274;12.214;2023-07-31T07:44:50;5.53;;;2.40;;
19800;SDS011;10060;48.274;12.214;2023-07-31T07:47:53;4.07;;;2.10;;
19800;SDS011;10060;48.274;12.214;2023-07-31T07:50:55;5.82;;;1.88;;
19800;SDS011;10060;48.274;12.214;2023-07-31T07:53:57;3.15;;;1.73;;
19800;SDS011;10060;48.274;12.214;2023-07-31T07:56:59;6.13;;;2.15;;
19800;SDS011;10060;48.274;12.214;2023-07-31T08:00:02;2.45;;;1.92;;
19800;SDS011;10060;48.274;12.214;2023-07-31T08:03:05;3.25;;;1.95;;
19800;SDS011;10060;48.274;12.214;2023-07-31T08:06:07;4.95;;;2.45;;
19800;SDS011;10060;48.274;12.214;2023-07-31T08:09:10;3.03;;;1.90;;
19800;SDS011;10060;48.274;12.214;2023-07-31T08:12:12;3.00;;;2.00;;
19800;SDS011;10060;48.274;12.214;2023-07-31T08:15:14;3.58;;;1.77;;
19800;SDS011;10060;48.274;12.214;2023-07-31T08:18:18;4.65;;;2.22;;
19800;SDS011;10060;48.274;12.214;2023-07-31T08:21:20;3.20;;;1.98;;
19800;SDS011;10060;48.274;12.214;2023-07-31T08:24:23;4.85;;;2.15;;
19800;SDS011;10060;48.274;12.214;2023-07-31T08:27:25;3.03;;;1.65;;
19800;SDS011;10060;48.274;12.214;2023-07-31T08:30:27;5.60;;;1.90;;
19800;SDS011;10060;48.274;12.214;2023-07-31T08:33:30;5.43;;;1.80;;
19800;SDS011;10060;48.274;12.214;2023-07-31T08:36:33;3.70;;;1.70;;
19800;SDS011;10060;48.274;12.214;2023-07-31T08:39:35;5.30;;;1.95;;
19800;SDS011;10060;48.274;12.214;2023-07-31T08:42:43;3.65;;;1.73;;
19800;SDS011;10060;48.274;12.214;2023-07-31T08:45:45;3.30;;;1.67;;
19800;SDS011;10060;48.274;12.214;2023-07-31T08:48:50;5.32;;;1.73;;
19800;SDS011;10060;48.274;12.214;2023-07-31T08:51:54;3.08;;;1.70;;
19800;SDS011;10060;48.274;12.214;2023-07-31T08:54:58;4.15;;;1.92;;
19800;SDS011;10060;48.274;12.214;2023-07-31T08:58:00;5.32;;;1.77;;
19800;SDS011;10060;48.274;12.214;2023-07-31T09:01:03;4.05;;;1.90;;
19800;SDS011;10060;48.274;12.214;2023-07-31T09:04:07;4.55;;;1.70;;
19800;SDS011;10060;48.274;12.214;2023-07-31T09:07:11;6.55;;;2.67;;
19800;SDS011;10060;48.274;12.214;2023-07-31T09:10:14;2.92;;;1.88;;
19800;SDS011;10060;48.274;12.214;2023-07-31T09:13:17;3.67;;;1.95;;
19800;SDS011;10060;48.274;12.214;2023-07-31T09:16:19;3.05;;;1.80;;
19800;SDS011;10060;48.274;12.214;2023-07-31T09:19:33;3.28;;;2.05;;
19800;SDS011;10060;48.274;12.214;2023-07-31T09:22:37;3.13;;;1.83;;
19800;SDS011;10060;48.274;12.214;2023-07-31T09:25:39;2.50;;;1.70;;
19800;SDS011;10060;48.274;12.214;2023-07-31T09:28:42;3.35;;;1.80;;
19800;SDS011;10060;48.274;12.214;2023-07-31T09:31:44;5.97;;;2.10;;
19800;SDS011;10060;48.274;12.214;2023-07-31T09:34:47;4.28;;;1.80;;
19800;SDS011;10060;48.274;12.214;2023-07-31T09:37:50;4.30;;;1.75;;
19800;SDS011;10060;48.274;12.214;2023-07-31T09:40:52;2.90;;;1.77;;
19800;SDS011;10060;48.274;12.214;2023-07-31T09:43:54;5.90;;;1.88;;
19800;SDS011;10060;48.274;12.214;2023-07-31T09:46:56;3.28;;;1.80;;
19800;SDS011;10060;48.274;12.214;2023-07-31T09:50:00;5.22;;;1.98;;
19800;SDS011;10060;48.274;12.214;2023-07-31T09:53:02;5.95;;;1.70;;
19800;SDS011;10060;48.274;12.214;2023-07-31T09:56:04;3.58;;;2.08;;
19800;SDS011;10060;48.274;12.214;2023-07-31T09:59:06;5.47;;;1.95;;
19800;SDS011;10060;48.274;12.214;2023-07-31T10:02:09;5.53;;;2.13;;
19800;SDS011;10060;48.274;12.214;2023-07-31T10:05:16;3.55;;;1.70;;
19800;SDS011;10060;48.274;12.214;2023-07-31T10:08:20;3.80;;;1.92;;
19800;SDS011;10060;48.274;12.214;2023-07-31T10:11:23;5.43;;;1.90;;
19800;SDS011;10060;48.274;12.214;2023-07-31T10:14:25;4.63;;;1.90;;
19800;SDS011;10060;48.274;12.214;2023-07-31T10:17:29;4.80;;;2.60;;
19800;SDS011;10060;48.274;12.214;2023-07-31T10:20:32;4.85;;;2.17;;
19800;SDS011;10060;48.274;12.214;2023-07-31T10:23:35;3.55;;;2.03;;
19800;SDS011;10060;48.274;12.214;2023-07-31T10:26:38;4.50;;;1.70;;
19800;SDS011;10060;48.274;12.214;2023-07-31T10:29:41;3.90;;;1.67;;
19800;SDS011;10060;48.274;12.214;2023-07-31T10:32:44;2.97;;;1.58;;
19800;SDS011;10060;48.274;12.214;2023-07-31T10:35:49;6.25;;;2.17;;
19800;SDS011;10060;48.274;12.214;2023-07-31T10:38:54;3.92;;;1.70;;
19800;SDS011;10060;48.274;12.214;2023-07-31T10:41:57;3.95;;;1.60;;
19800;SDS011;10060;48.274;12.214;2023-07-31T10:45:00;3.13;;;1.60;;
19800;SDS011;10060;48.274;12.214;2023-07-31T10:48:03;4.70;;;1.90;;
19800;SDS011;10060;48.274;12.214;2023-07-31T10:51:08;4.07;;;1.73;;
19800;SDS011;10060;48.274;12.214;2023-07-31T10:54:11;3.60;;;1.70;;
19800;SDS011;10060;48.274;12.214;2023-07-31T10:57:22;3.03;;;1.65;;
19800;SDS011;10060;48.274;12.214;2023-07-31T11:00:26;5.25;;;1.67;;
19800;SDS011;10060;48.274;12.214;2023-07-31T11:03:40;2.50;;;1.80;;
19800;SDS011;10060;48.274;12.214;2023-07-31T11:06:45;3.97;;;2.13;;
19800;SDS011;10060;48.274;12.214;2023-07-31T11:09:56;3.50;;;1.80;;
19800;SDS011;10060;48.274;12.214;2023-07-31T11:12:58;4.57;;;1.80;;
19800;SDS011;10060;48.274;12.214;2023-07-31T11:16:01;3.95;;;1.60;;
19800;SDS011;10060;48.274;12.214;2023-07-31T11:19:03;3.17;;;1.50;;
19800;SDS011;10060;48.274;12.214;2023-07-31T11:22:11;7.70;;;1.88;;
19800;SDS011;10060;48.274;12.214;2023-07-31T11:25:14;3.40;;;1.95;;
19800;SDS011;10060;48.274;12.214;2023-07-31T11:28:17;19.63;;;2.70;;
19800;SDS011;10060;48.274;12.214;2023-07-31T11:31:19;5.57;;;1.65;;
19800;SDS011;10060;48.274;12.214;2023-07-31T11:34:21;3.70;;;1.90;;
19800;SDS011;10060;48.274;12.214;2023-07-31T11:37:28;2.85;;;1.40;;
19800;SDS011;10060;48.274;12.214;2023-07-31T11:40:43;3.65;;;1.80;;
19800;SDS011;10060;48.274;12.214;2023-07-31T11:43:45;4.40;;;1.85;;
19800;SDS011;10060;48.274;12.214;2023-07-31T11:46:47;3.75;;;2.13;;
19800;SDS011;10060;48.274;12.214;2023-07-31T11:49:50;3.80;;;1.75;;
19800;SDS011;10060;48.274;12.214;2023-07-31T11:52:54;3.35;;;1.70;;
19800;SDS011;10060;48.274;12.214;2023-07-31T11:55:58;4.53;;;2.00;;
19800;SDS011;10060;48.274;12.214;2023-07-31T11:59:00;5.35;;;2.15;;
19800;SDS011;10060;48.274;12.214;2023-07-31T12:02:05;5.68;;;2.13;;
19800;SDS011;10060;48.274;12.214;2023-07-31T12:05:10;9.88;;;1.67;;
19800;SDS011;10060;48.274;12.214;2023-07-31T12:08:13;3.90;;;2.03;;
19800;SDS011;10060;48.274;12.214;2023-07-31T12:11:16;3.28;;;1.85;;
19800;SDS011;10060;48.274;12.214;2023-07-31T12:14:22;3.47;;;2.03;;
19800;SDS011;10060;48.274;12.214;2023-07-31T12:17:25;5.70;;;2.00;;
19800;SDS011;10060;48.274;12.214;2023-07-31T12:20:27;3.78;;;1.90;;
19800;SDS011;10060;48.274;12.214;2023-07-31T12:23:33;2.78;;;1.73;;
19800;SDS011;10060;48.274;12.214;2023-07-31T12:26:36;3.22;;;1.85;;
19800;SDS011;10060;48.274;12.214;2023-07-31T12:29:38;5.55;;;2.10;;
19800;SDS011;10060;48.274;12.214;2023-07-31T12:32:40;2.75;;;1.48;;
19800;SDS011;10060;48.274;12.214;2023-07-31T12:35:45;3.25;;;1.77;;
19800;SDS011;10060;48.274;12.214;2023-07-31T12:38:48;3.75;;;2.03;;
19800;SDS011;10060;48.274;12.214;2023-07-31T12:41:51;2.22;;;1.67;;
19800;SDS011;10060;48.274;12.214;2023-07-31T12:44:53;4.40;;;1.90;;
19800;SDS011;10060;48.274;12.214;2023-07-31T12:47:55;13.07;;;2.25;;
19800;SDS011;10060;48.274;12.214;2023-07-31T12:50:57;3.83;;;1.85;;
19800;SDS011;10060;48.274;12.214;2023-07-31T12:54:01;4.43;;;1.90;;
19800;SDS011;10060;48.274;12.214;2023-07-31T12:57:03;3.53;;;1.77;;
19800;SDS011;10060;48.274;12.214;2023-07-31T13:00:06;3.17;;;1.67;;
19800;SDS011;10060;48.274;12.214;2023-07-31T13:03:08;4.05;;;1.48;;
19800;SDS011;10060;48.274;12.214;2023-07-31T13:06:10;4.50;;;1.60;;
19800;SDS011;10060;48.274;12.214;2023-07-31T13:09:14;4.80;;;1.90;;
19800;SDS011;10060;48.274;12.214;2023-07-31T13:12:17;2.72;;;1.45;;
19800;SDS011;10060;48.274;12.214;2023-07-31T13:15:19;21.52;;;3.05;;
19800;SDS011;10060;48.274;12.214;2023-07-31T13:18:21;3.15;;;1.80;;
19800;SDS011;10060;48.274;12.214;2023-07-31T13:21:23;3.22;;;1.35;;
19800;SDS011;10060;48.274;12.214;2023-07-31T13:24:27;2.83;;;1.33;;
19800;SDS011;10060;48.274;12.214;2023-07-31T13:27:29;5.50;;;1.70;;
19800;SDS011;10060;48.274;12.214;2023-07-31T13:30:32;5.55;;;1.98;;
19800;SDS011;10060;48.274;12.214;2023-07-31T13:33:35;2.22;;;1.70;;
19800;SDS011;10060;48.274;12.214;2023-07-31T13:36:37;3.10;;;1.70;;
19800;SDS011;10060;48.274;12.214;2023-07-31T13:39:41;4.18;;;1.95;;
19800;SDS011;10060;48.274;12.214;2023-07-31T13:42:43;2.35;;;1.65;;
19800;SDS011;10060;48.274;12.214;2023-07-31T13:45:47;2.38;;;1.63;;
19800;SDS011;10060;48.274;12.214;2023-07-31T13:48:49;4.32;;;1.85;;
19800;SDS011;10060;48.274;12.214;2023-07-31T13:51:51;2.40;;;1.58;;
19800;SDS011;10060;48.274;12.214;2023-07-31T13:54:55;4.65;;;1.88;;
19800;SDS011;10060;48.274;12.214;2023-07-31T13:57:57;3.33;;;1.80;;
19800;SDS011;10060;48.274;12.214;2023-07-31T14:01:00;2.67;;;1.67;;
19800;SDS011;10060;48.274;12.214;2023-07-31T14:04:03;5.00;;;1.80;;
19800;SDS011;10060;48.274;12.214;2023-07-31T14:07:05;6.70;;;2.10;;
19800;SDS011;10060;48.274;12.214;2023-07-31T14:10:09;3.33;;;1.80;;
19800;SDS011;10060;48.274;12.214;2023-07-31T14:13:11;7.93;;;1.75;;
19800;SDS011;10060;48.274;12.214;2023-07-31T14:16:13;5.00;;;1.50;;
19800;SDS011;10060;48.274;12.214;2023-07-31T14:19:15;2.50;;;1.70;;
19800;SDS011;10060;48.274;12.214;2023-07-31T14:22:26;4.05;;;1.40;;
19800;SDS011;10060;48.274;12.214;2023-07-31T14:25:30;3.25;;;1.77;;
19800;SDS011;10060;48.274;12.214;2023-07-31T14:28:33;1.73;;;1.33;;
19800;SDS011;10060;48.274;12.214;2023-07-31T14:31:35;3.25;;;1.80;;
19800;SDS011;10060;48.274;12.214;2023-07-31T14:34:37;3.50;;;1.60;;
19800;SDS011;10060;48.274;12.214;2023-07-31T14:37:40;1.77;;;1.35;;
19800;SDS011;10060;48.274;12.214;2023-07-31T14:40:44;2.45;;;1.65;;
19800;SDS011;10060;48.274;12.214;2023-07-31T14:43:46;3.17;;;1.42;;
19800;SDS011;10060;48.274;12.214;2023-07-31T14:46:48;5.43;;;1.58;;
19800;SDS011;10060;48.274;12.214;2023-07-31T14:49:51;3.45;;;1.70;;
19800;SDS011;10060;48.274;12.214;2023-07-31T14:52:53;3.50;;;1.60;;
19800;SDS011;10060;48.274;12.214;2023-07-31T14:55:56;3.05;;;1.50;;
19800;SDS011;10060;48.274;12.214;2023-07-31T14:58:58;3.85;;;1.52;;
19800;SDS011;10060;48.274;12.214;2023-07-31T15:02:00;3.65;;;1.77;;
19800;SDS011;10060;48.274;12.214;2023-07-31T15:05:03;4.15;;;2.10;;
19800;SDS011;10060;48.274;12.214;2023-07-31T15:08:05;3.70;;;1.65;;
19800;SDS011;10060;48.274;12.214;2023-07-31T15:11:09;2.95;;;1.98;;
19800;SDS011;10060;48.274;12.214;2023-07-31T15:14:11;2.63;;;1.58;;
19800;SDS011;10060;48.274;12.214;2023-07-31T15:17:13;3.17;;;1.85;;
19800;SDS011;10060;48.274;12.214;2023-07-31T15:20:15;2.67;;;2.03;;
19800;SDS011;10060;48.274;12.214;2023-07-31T15:23:17;3.17;;;1.90;;
19800;SDS011;10060;48.274;12.214;2023-07-31T15:26:21;63.53;;;5.93;;
19800;SDS011;10060;48.274;12.214;2023-07-31T15:29:23;7.20;;;2.05;;
19800;SDS011;10060;48.274;12.214;2023-07-31T15:32:25;4.60;;;1.85;;
19800;SDS011;10060;48.274;12.214;2023-07-31T15:35:27;6.68;;;2.45;;
19800;SDS011;10060;48.274;12.214;2023-07-31T15:38:29;4.65;;;2.20;;
19800;SDS011;10060;48.274;12.214;2023-07-31T15:41:32;4.57;;;2.05;;
19800;SDS011;10060;48.274;12.214;2023-07-31T15:44:35;2.90;;;2.08;;
19800;SDS011;10060;48.274;12.214;2023-07-31T15:47:37;4.47;;;2.10;;
19800;SDS011;10060;48.274;12.214;2023-07-31T15:50:39;8.30;;;2.17;;
19800;SDS011;10060;48.274;12.214;2023-07-31T15:53:41;8.25;;;3.80;;
19800;SDS011;10060;48.274;12.214;2023-07-31T15:56:44;6.05;;;2.78;;
19800;SDS011;10060;48.274;12.214;2023-07-31T15:59:46;4.03;;;2.00;;
19800;SDS011;10060;48.274;12.214;2023-07-31T16:02:49;19.92;;;4.47;;
19800;SDS011;10060;48.274;12.214;2023-07-31T16:05:51;4.28;;;2.38;;
19800;SDS011;10060;48.274;12.214;2023-07-31T16:08:53;3.03;;;1.83;;
19800;SDS011;10060;48.274;12.214;2023-07-31T16:11:56;6.10;;;2.08;;
19800;SDS011;10060;48.274;12.214;2023-07-31T16:14:59;4.97;;;2.75;;
19800;SDS011;10060;48.274;12.214;2023-07-31T16:18:01;4.10;;;2.13;;
19800;SDS011;10060;48.274;12.214;2023-07-31T16:21:03;2.97;;;2.15;;
19800;SDS011;10060;48.274;12.214;2023-07-31T16:24:05;3.40;;;2.20;;
19800;SDS011;10060;48.274;12.214;2023-07-31T16:27:08;6.00;;;2.33;;
19800;SDS011;10060;48.274;12.214;2023-07-31T16:30:11;6.15;;;2.42;;
19800;SDS011;10060;48.274;12.214;2023-07-31T16:33:13;6.68;;;2.20;;
19800;SDS011;10060;48.274;12.214;2023-07-31T16:36:15;5.30;;;3.00;;
19800;SDS011;10060;48.274;12.214;2023-07-31T16:39:19;4.72;;;2.58;;
19800;SDS011;10060;48.274;12.214;2023-07-31T16:42:22;4.95;;;2.28;;
19800;SDS011;10060;48.274;12.214;2023-07-31T16:45:24;5.20;;;2.13;;
19800;SDS011;10060;48.274;12.214;2023-07-31T16:48:26;4.53;;;2.60;;
19800;SDS011;10060;48.274;12.214;2023-07-31T16:51:28;5.35;;;2.50;;
19800;SDS011;10060;48.274;12.214;2023-07-31T16:54:30;4.47;;;2.65;;
19800;SDS011;10060;48.274;12.214;2023-07-31T16:57:34;3.10;;;2.13;;
19800;SDS011;10060;48.274;12.214;2023-07-31T17:00:36;8.85;;;2.65;;
19800;SDS011;10060;48.274;12.214;2023-07-31T17:03:38;4.25;;;2.22;;
19800;SDS011;10060;48.274;12.214;2023-07-31T17:06:40;6.38;;;2.85;;
19800;SDS011;10060;48.274;12.214;2023-07-31T17:09:43;4.72;;;2.30;;
19800;SDS011;10060;48.274;12.214;2023-07-31T17:12:46;3.80;;;2.42;;
19800;SDS011;10060;48.274;12.214;2023-07-31T17:15:48;5.30;;;2.80;;
19800;SDS011;10060;48.274;12.214;2023-07-31T17:18:50;6.05;;;2.42;;
19800;SDS011;10060;48.274;12.214;2023-07-31T17:21:52;4.22;;;2.25;;
19800;SDS011;10060;48.274;12.214;2023-07-31T17:24:54;5.63;;;2.50;;
19800;SDS011;10060;48.274;12.214;2023-07-31T17:27:58;4.80;;;2.30;;
19800;SDS011;10060;48.274;12.214;2023-07-31T17:31:00;4.95;;;2.15;;
19800;SDS011;10060;48.274;12.214;2023-07-31T17:34:02;4.20;;;2.67;;
19800;SDS011;10060;48.274;12.214;2023-07-31T17:37:04;8.43;;;2.70;;
19800;SDS011;10060;48.274;12.214;2023-07-31T17:40:07;6.38;;;2.58;;
19800;SDS011;10060;48.274;12.214;2023-07-31T17:43:10;5.13;;;2.40;;
19800;SDS011;10060;48.274;12.214;2023-07-31T17:46:12;5.00;;;2.65;;
19800;SDS011;10060;48.274;12.214;2023-07-31T17:49:14;5.55;;;2.45;;
19800;SDS011;10060;48.274;12.214;2023-07-31T17:52:17;4.45;;;2.75;;
19800;SDS011;10060;48.274;12.214;2023-07-31T17:55:19;5.65;;;2.40;;
19800;SDS011;10060;48.274;12.214;2023-07-31T17:58:22;4.85;;;2.85;;
19800;SDS011;10060;48.274;12.214;2023-07-31T18:01:24;4.47;;;2.63;;
19800;SDS011;10060;48.274;12.214;2023-07-31T18:04:26;8.50;;;2.55;;